Time;durP1;ratioP1;P1;durP2;ratioP2;P2;SDS_P1;SDS_P2;PMS_P1;PMS_P2;Temp;Humidity;BMP_temperature;BMP_pressure;BME280_temperature;BME280_humidity;BME280_pressure;Samples;Min_cycle;Max_cycle;Signal;HPM_P1;HPM_P2
2023/03/24 01:04:34;;;;;;;8.57;2.88;;;17.60;55.70;;;;;;6256098;23;20061;-72
2023/03/24 01:07:40;;;;;;;9.95;3.65;;;17.60;55.80;;;;;;6031720;29;20438;-73
2023/03/24 01:10:49;;;;;;;6.90;3.95;;;17.50;56.10;;;;;;6032804;29;20056;-71
2023/03/24 01:13:53;;;;;;;4.28;3.17;;;17.40;56.30;;;;;;6031199;29;20033;-74
2023/03/24 01:16:54;;;;;;;6.82;3.47;;;17.40;56.50;;;;;;6016114;29;20072;-72
2023/03/24 01:19:56;;;;;;;9.63;3.72;;;17.30;56.60;;;;;;6023284;29;20424;-73
2023/03/24 01:22:58;;;;;;;9.30;3.25;;;17.30;56.70;;;;;;5993050;29;20042;-71
2023/03/24 01:26:05;;;;;;;11.70;3.55;;;17.20;56.80;;;;;;5993068;29;20037;-72
2023/03/24 01:29:06;;;;;;;8.15;3.10;;;17.20;56.80;;;;;;5992834;29;20060;-72
2023/03/24 01:32:07;;;;;;;7.13;3.30;;;17.20;56.90;;;;;;6023840;29;20456;-70
2023/03/24 01:35:10;;;;;;;8.82;2.88;;;17.20;56.90;;;;;;6008486;29;20065;-71
2023/03/24 01:38:12;;;;;;;10.55;3.55;;;17.20;57.00;;;;;;6023277;29;20050;-71
2023/03/24 01:41:13;;;;;;;10.52;3.55;;;17.20;57.10;;;;;;6030318;29;20028;-73
2023/03/24 01:44:26;;;;;;;8.50;3.35;;;17.20;57.10;;;;;;6030860;29;20030;-73
2023/03/24 01:47:27;;;;;;;5.45;3.05;;;17.20;57.20;;;;;;6030668;29;20041;-72
2023/03/24 01:50:30;;;;;;;5.78;2.97;;;17.20;57.10;;;;;;6030351;29;20466;-73
2023/03/24 01:53:33;;;;;;;5.32;2.85;;;17.20;57.20;;;;;;6031921;29;20037;-72
2023/03/24 01:56:38;;;;;;;10.50;3.30;;;17.20;57.20;;;;;;6031971;29;20047;-72
2023/03/24 01:59:45;;;;;;;12.13;3.47;;;17.20;57.10;;;;;;6030212;29;20033;-73
2023/03/24 02:02:53;;;;;;;5.45;3.25;;;17.20;57.20;;;;;;6030244;29;20390;-72
2023/03/24 02:06:01;;;;;;;10.07;3.97;;;17.20;57.10;;;;;;6015127;29;20443;-73
2023/03/24 02:09:03;;;;;;;8.48;3.38;;;17.20;57.10;;;;;;6030097;29;20339;-71
2023/03/24 02:12:05;;;;;;;11.45;3.42;;;17.20;57.10;;;;;;6029747;29;20025;-71
2023/03/24 02:15:09;;;;;;;5.35;3.22;;;17.20;57.30;;;;;;6014930;29;20534;-71
2023/03/24 02:18:24;;;;;;;6.00;3.45;;;17.20;57.40;;;;;;6024697;29;20057;-72
2023/03/24 02:21:54;;;;;;;4.30;2.50;;;17.10;57.50;;;;;;6020086;29;20037;-72
2023/03/24 02:25:29;;;;;;;7.35;2.90;;;17.10;57.50;;;;;;6015994;29;20045;-74
2023/03/24 02:28:47;;;;;;;4.28;2.92;;;17.10;57.60;;;;;;6029287;29;20029;-72
2023/03/24 02:32:13;;;;;;;4.47;3.25;;;17.00;57.60;;;;;;6029594;29;20063;-71
2023/03/24 02:35:17;;;;;;;7.90;2.80;;;17.00;57.60;;;;;;6030955;29;20036;-73
2023/03/24 02:38:39;;;;;;;9.45;2.70;;;17.10;57.60;;;;;;6029209;29;20029;-70
2023/03/24 02:42:06;;;;;;;4.25;2.45;;;17.10;57.50;;;;;;6029529;29;20072;-71
2023/03/24 02:45:26;;;;;;;3.15;2.20;;;17.10;57.40;;;;;;6017504;29;20479;-72
2023/03/24 02:48:39;;;;;;;7.05;2.72;;;17.20;57.30;;;;;;6035039;29;20058;-72
2023/03/24 02:51:59;;;;;;;7.00;2.60;;;17.20;57.10;;;;;;6032967;29;20423;-71
2023/03/24 02:55:14;;;;;;;11.90;2.67;;;17.20;57.00;;;;;;6036248;29;20034;-71
2023/03/24 02:58:22;;;;;;;4.22;2.60;;;17.20;57.00;;;;;;6030081;29;20514;-74
2023/03/24 03:01:56;;;;;;;5.28;2.65;;;17.20;57.00;;;;;;6029293;29;20029;-70
2023/03/24 03:05:27;;;;;;;5.38;2.88;;;17.20;57.60;;;;;;5937135;30;20046;-72
2023/03/24 03:08:32;;;;;;;7.35;3.67;;;17.20;56.90;;;;;;5921541;30;20099;-73
2023/03/24 03:11:34;;;;;;;12.73;5.65;;;17.30;57.00;;;;;;5921930;30;20042;-72
2023/03/24 03:14:45;;;;;;;15.07;6.35;;;17.30;57.00;;;;;;5936948;29;20039;-72
2023/03/24 03:17:54;;;;;;;17.63;6.03;;;17.30;57.20;;;;;;5936631;30;20099;-71
2023/03/24 03:21:01;;;;;;;13.88;6.07;;;17.30;57.30;;;;;;5936599;30;20059;-71
2023/03/24 03:24:16;;;;;;;6.35;3.55;;;17.30;57.30;;;;;;5936716;30;20035;-71
2023/03/24 03:27:25;;;;;;;7.82;3.38;;;17.30;57.30;;;;;;5921456;30;20101;-72
2023/03/24 03:30:38;;;;;;;4.50;2.42;;;17.30;57.20;;;;;;5921590;30;20094;-70
2023/03/24 03:33:50;;;;;;;6.40;2.95;;;17.30;57.20;;;;;;5936632;30;20039;-71
2023/03/24 03:37:32;;;;;;;5.82;2.58;;;17.30;57.10;;;;;;5936868;30;20050;-71
2023/03/24 03:40:51;;;;;;;8.80;4.43;;;17.30;57.00;;;;;;5923504;29;20095;-72
2023/03/24 03:43:55;;;;;;;11.25;5.57;;;17.30;57.10;;;;;;5951904;29;20087;-71
2023/03/24 03:46:56;;;;;;;10.02;5.30;;;17.30;57.10;;;;;;5961077;29;20051;-72
2023/03/24 03:50:09;;;;;;;9.95;5.22;;;17.30;57.30;;;;;;5958945;29;20251;-71
2023/03/24 03:53:14;;;;;;;10.60;5.43;;;17.30;57.40;;;;;;5958570;29;20106;-73
2023/03/24 03:56:20;;;;;;;7.95;5.25;;;17.30;57.40;;;;;;5943432;29;20054;-72
2023/03/24 03:59:35;;;;;;;10.13;4.72;;;17.30;57.50;;;;;;5942817;29;20050;-74
2023/03/24 04:03:00;;;;;;;8.93;4.80;;;17.30;57.50;;;;;;5943216;29;20163;-73
2023/03/24 04:06:28;;;;;;;8.70;4.85;;;17.30;57.60;;;;;;5943947;29;20041;-71
2023/03/24 04:09:48;;;;;;;8.68;3.60;;;17.30;57.60;;;;;;5959811;29;20492;-73
2023/03/24 04:12:59;;;;;;;4.97;3.05;;;17.20;57.60;;;;;;5947691;29;20042;-71
2023/03/24 04:16:19;;;;;;;;;;;17.20;57.50;;;;;;6016083;29;20045;-71
2023/03/24 04:20:18;;;;;;;5.47;2.47;;;17.20;57.30;;;;;;6000781;29;20010;-72
2023/03/24 04:23:29;;;;;;;7.75;2.78;;;17.20;57.20;;;;;;6016733;29;20038;-71
2023/03/24 04:27:05;;;;;;;5.25;2.65;;;17.20;57.20;;;;;;6005156;29;20121;-72
2023/03/24 04:30:36;;;;;;;3.85;2.67;;;17.10;57.30;;;;;;5941806;29;20054;-72
2023/03/24 04:33:49;;;;;;;8.07;2.55;;;17.00;57.30;;;;;;5936491;29;20055;-72
2023/03/24 04:37:01;;;;;;;5.20;3.00;;;17.00;57.30;;;;;;5942757;29;20099;-71
2023/03/24 04:40:42;;;;;;;4.85;2.42;;;17.00;57.40;;;;;;5947194;29;20176;-71
2023/03/24 04:43:46;;;;;;;5.65;2.33;;;17.00;57.30;;;;;;5950207;29;20027;-71
2023/03/24 04:46:53;;;;;;;5.45;2.47;;;17.00;57.30;;;;;;5950623;29;20063;-72
2023/03/24 04:50:09;;;;;;;4.03;2.20;;;17.00;57.10;;;;;;5953722;29;20123;-72
2023/03/24 04:53:11;;;;;;;4.95;1.67;;;17.00;56.90;;;;;;5961713;29;20081;-72
2023/03/24 04:56:30;;;;;;;5.05;1.88;;;17.00;56.30;;;;;;5947649;29;20043;-71
2023/03/24 04:59:52;;;;;;;2.78;1.40;;;17.00;55.70;;;;;;5949726;29;20634;-71
2023/03/24 05:02:54;;;;;;;9.13;1.63;;;17.10;55.30;;;;;;5947676;29;20047;-72
2023/03/24 05:06:04;;;;;;;3.33;1.50;;;17.10;54.80;;;;;;5983280;29;20045;-71
2023/03/24 05:09:05;;;;;;;6.75;1.88;;;17.20;54.40;;;;;;6031715;29;20037;-72
2023/03/24 05:12:07;;;;;;;3.85;1.50;;;17.20;54.20;;;;;;6016520;29;20049;-71
2023/03/24 05:15:22;;;;;;;4.78;1.23;;;17.20;53.80;;;;;;6031782;29;20037;-70
2023/03/24 05:18:29;;;;;;;3.25;1.55;;;17.20;53.80;;;;;;6024280;29;20034;-72
2023/03/24 05:21:31;;;;;;;7.95;1.38;;;17.20;53.90;;;;;;6009971;29;20038;-71
2023/03/24 05:24:33;;;;;;;6.03;1.20;;;17.30;53.80;;;;;;6008536;29;20030;-71
2023/03/24 05:27:34;;;;;;;2.90;2.03;;;17.30;53.70;;;;;;6023514;29;20043;-71
2023/03/24 05:30:46;;;;;;;6.25;2.83;;;17.30;53.90;;;;;;6031363;29;20117;-72
2023/03/24 05:34:06;;;;;;;7.75;3.58;;;17.40;54.40;;;;;;6032974;29;20470;-74
2023/03/24 05:37:16;;;;;;;8.18;3.83;;;17.30;55.00;;;;;;6016795;29;20037;-72
2023/03/24 05:40:20;;;;;;;5.97;3.58;;;17.30;55.60;;;;;;6031586;29;20058;-70
2023/03/24 05:43:26;;;;;;;12.57;4.63;;;17.30;55.90;;;;;;6032405;29;20044;-70
2023/03/24 05:46:38;;;;;;;11.90;5.57;;;17.20;56.20;;;;;;6042038;29;20045;-73
2023/03/24 05:49:39;;;;;;;12.32;6.28;;;17.20;56.30;;;;;;6035222;29;20040;-72
2023/03/24 05:52:40;;;;;;;10.77;5.70;;;17.20;56.60;;;;;;6021036;29;20033;-71
2023/03/24 05:56:00;;;;;;;6.20;2.97;;;17.20;56.70;;;;;;6035966;29;20053;-72
2023/03/24 05:59:31;;;;;;;3.75;1.63;;;17.20;56.30;;;;;;6032092;29;20045;-72
2023/03/24 06:02:35;;;;;;;6.70;1.90;;;17.30;56.10;;;;;;6036768;29;20038;-72
2023/03/24 06:05:41;;;;;;;6.80;1.45;;;17.30;55.80;;;;;;6036240;29;20065;-72
2023/03/24 06:08:43;;;;;;;6.97;2.00;;;17.30;56.10;;;;;;6037499;29;20133;-72
2023/03/24 06:11:45;;;;;;;1.85;1.30;;;17.30;55.40;;;;;;6039467;29;20041;-73
2023/03/24 06:14:47;;;;;;;4.63;1.60;;;17.30;55.30;;;;;;6037479;29;20120;-71
2023/03/24 06:17:48;;;;;;;5.57;1.83;;;17.30;55.30;;;;;;6035923;29;20093;-72
2023/03/24 06:21:00;;;;;;;7.32;2.70;;;17.30;55.30;;;;;;6036287;29;20041;-74
2023/03/24 06:24:04;;;;;;;14.77;7.25;;;17.30;55.40;;;;;;6035285;29;20037;-72
2023/03/24 06:27:07;;;;;;;18.33;8.25;;;17.30;56.00;;;;;;6034325;29;20043;-71
2023/03/24 06:30:10;;;;;;;19.38;7.55;;;17.20;56.60;;;;;;6035546;29;20105;-72
2023/03/24 06:33:11;;;;;;;17.17;8.45;;;17.20;57.00;;;;;;6036949;29;20061;-74
2023/03/24 06:36:13;;;;;;;17.63;8.02;;;17.20;57.50;;;;;;6020104;29;20033;-72
2023/03/24 06:39:17;;;;;;;17.52;8.60;;;17.20;57.70;;;;;;6020306;29;20072;-72
2023/03/24 06:42:18;;;;;;;15.57;6.18;;;17.20;57.90;;;;;;6036348;29;20160;-72
2023/03/24 06:45:19;;;;;;;11.93;5.38;;;17.20;57.90;;;;;;6035968;29;20030;-72
2023/03/24 06:48:22;;;;;;;12.57;4.57;;;17.20;57.90;;;;;;6032948;29;20081;-72
2023/03/24 06:51:25;;;;;;;10.20;4.80;;;17.20;57.70;;;;;;6031806;29;20402;-71
2023/03/24 06:54:27;;;;;;;13.23;6.32;;;17.20;57.50;;;;;;6032872;29;20057;-72
2023/03/24 06:57:28;;;;;;;13.95;4.93;;;17.20;57.50;;;;;;6033542;29;20414;-73
2023/03/24 07:01:01;;;;;;;8.40;4.80;;;17.20;57.40;;;;;;6037701;29;20040;-72
2023/03/24 07:04:24;;;;;;;8.82;4.03;;;17.10;57.50;;;;;;6037904;29;20052;-72
2023/03/24 07:07:25;;;;;;;7.10;3.47;;;17.10;57.50;;;;;;6033170;29;20445;-74
2023/03/24 07:10:45;;;;;;;5.07;2.55;;;17.10;57.40;;;;;;6017890;29;20128;-72
2023/03/24 07:13:48;;;;;;;10.32;2.17;;;17.10;57.30;;;;;;6031013;29;20057;-71
2023/03/24 07:16:50;;;;;;;7.85;1.92;;;17.10;57.20;;;;;;6030414;29;20450;-72
2023/03/24 07:20:07;;;;;;;7.95;1.95;;;17.10;57.20;;;;;;6031479;29;20222;-75
2023/03/24 07:23:29;;;;;;;8.05;2.00;;;17.00;57.10;;;;;;6025003;29;20700;-73
2023/03/24 07:26:59;;;;;;;4.35;1.95;;;17.00;57.10;;;;;;5982934;29;20047;-73
2023/03/24 07:30:00;;;;;;;7.28;2.28;;;17.10;57.30;;;;;;5983340;29;20115;-73
2023/03/24 07:33:11;;;;;;;4.10;1.92;;;17.10;57.30;;;;;;5967849;29;20137;-72
2023/03/24 07:36:13;;;;;;;6.15;2.42;;;17.20;57.30;;;;;;5982970;29;20610;-71
2023/03/24 07:39:15;;;;;;;4.88;2.20;;;17.20;57.30;;;;;;5966590;29;20124;-74
2023/03/24 07:42:16;;;;;;;5.15;2.13;;;17.30;57.30;;;;;;5982462;29;20098;-73
2023/03/24 07:45:36;;;;;;;3.53;2.22;;;17.40;57.30;;;;;;5983192;29;20134;-75
2023/03/24 07:48:37;;;;;;;5.78;2.42;;;17.50;57.30;;;;;;5983234;29;20149;-71
2023/03/24 07:51:38;;;;;;;8.07;2.10;;;17.50;57.20;;;;;;5982631;29;20129;-72
2023/03/24 07:54:52;;;;;;;8.68;2.10;;;17.50;57.20;;;;;;5968974;29;20046;-72
2023/03/24 07:58:16;;;;;;;11.40;2.05;;;17.50;57.10;;;;;;5983111;29;20156;-71
2023/03/24 08:01:35;;;;;;;7.80;2.70;;;17.40;57.10;;;;;;5967825;29;20034;-75
2023/03/24 08:04:37;;;;;;;11.07;2.60;;;17.40;57.20;;;;;;5992830;29;20049;-70
2023/03/24 08:07:54;;;;;;;6.30;2.05;;;17.40;57.20;;;;;;6022736;29;20042;-72
2023/03/24 08:10:55;;;;;;;10.50;2.53;;;17.40;57.30;;;;;;6008134;29;20040;-72
2023/03/24 08:13:57;;;;;;;10.23;2.38;;;17.50;57.10;;;;;;6005496;29;20436;-72
2023/03/24 08:16:58;;;;;;;8.43;2.38;;;17.50;57.00;;;;;;6026841;29;20041;-73
2023/03/24 08:19:59;;;;;;;6.43;2.78;;;17.60;56.80;;;;;;6028248;29;20471;-73
2023/03/24 08:23:03;;;;;;;2.72;1.88;;;17.70;56.70;;;;;;6030290;29;20474;-73
2023/03/24 08:26:05;;;;;;;9.68;2.28;;;17.80;56.50;;;;;;6021478;29;20054;-71
2023/03/24 08:29:07;;;;;;;5.43;2.55;;;18.00;56.30;;;;;;6037718;29;20063;-72
2023/03/24 08:32:08;;;;;;;8.38;3.28;;;18.10;55.80;;;;;;6038985;29;20051;-72
2023/03/24 08:35:13;;;;;;;16.13;4.03;;;18.10;55.70;;;;;;6038146;29;20395;-72
2023/03/24 08:38:15;;;;;;;11.25;4.68;;;18.20;55.70;;;;;;6034913;29;20034;-74
2023/03/24 08:41:16;;;;;;;9.20;5.28;;;18.50;55.80;;;;;;6034782;29;20034;-73
2023/03/24 08:44:16;;;;;;;7.40;4.13;;;18.70;55.50;;;;;;6032487;29;20026;-73
2023/03/24 08:47:17;;;;;;;8.07;3.65;;;18.90;55.20;;;;;;6017009;29;20125;-72
2023/03/24 08:50:21;;;;;;;11.40;3.13;;;19.00;54.90;;;;;;6033292;29;20071;-73
2023/03/24 08:53:22;;;;;;;8.95;2.85;;;19.10;54.40;;;;;;6032089;29;20048;-73
2023/03/24 08:56:24;;;;;;;8.82;2.63;;;19.10;54.00;;;;;;6032005;29;20073;-74
2023/03/24 08:59:26;;;;;;;5.30;2.35;;;19.10;53.40;;;;;;6031688;29;20048;-71
2023/03/24 09:02:27;;;;;;;7.75;2.72;;;19.00;53.30;;;;;;6031540;29;20049;-73
2023/03/24 09:05:28;;;;;;;4.72;2.28;;;18.90;53.30;;;;;;6033397;29;20076;-73
2023/03/24 09:08:29;;;;;;;2.22;1.83;;;18.80;53.40;;;;;;6016309;29;20034;-73
2023/03/24 09:11:30;;;;;;;9.00;2.60;;;18.70;53.10;;;;;;6033940;29;20025;-72
2023/03/24 09:14:31;;;;;;;6.03;2.22;;;18.70;53.10;;;;;;6033895;29;20045;-72
2023/03/24 09:17:32;;;;;;;5.35;2.35;;;18.60;53.10;;;;;;6034047;29;20045;-73
2023/03/24 09:20:33;;;;;;;8.23;2.55;;;18.60;53.20;;;;;;6032270;29;20057;-72
2023/03/24 09:23:34;;;;;;;3.58;1.88;;;18.50;53.20;;;;;;6020580;29;20517;-71
2023/03/24 09:26:35;;;;;;;12.10;2.20;;;18.50;53.10;;;;;;6010109;29;20030;-72
2023/03/24 09:29:36;;;;;;;4.68;1.80;;;18.40;53.10;;;;;;6008106;29;20038;-74
2023/03/24 09:32:37;;;;;;;8.57;2.13;;;18.40;53.20;;;;;;6008150;29;20034;-73
2023/03/24 09:35:39;;;;;;;4.80;2.03;;;18.40;53.30;;;;;;6008403;29;20116;-72
2023/03/24 09:38:40;;;;;;;7.45;2.10;;;18.40;53.30;;;;;;6009913;29;20499;-72
2023/03/24 09:41:44;;;;;;;5.20;1.67;;;18.40;53.10;;;;;;6009992;29;20042;-72
2023/03/24 09:44:51;;;;;;;4.00;1.75;;;18.50;53.00;;;;;;6007760;29;20090;-72
2023/03/24 09:48:00;;;;;;;5.00;2.00;;;18.60;52.70;;;;;;6009090;29;20038;-72
2023/03/24 09:51:14;;;;;;;5.20;1.98;;;18.70;52.50;;;;;;6009583;29;20034;-73
2023/03/24 09:54:35;;;;;;;5.20;1.70;;;18.70;52.10;;;;;;6022995;29;20033;-74
2023/03/24 09:57:40;;;;;;;11.63;1.92;;;18.90;51.80;;;;;;6032457;29;20060;-74
2023/03/24 10:00:43;;;;;;;5.22;2.58;;;19.10;51.40;;;;;;6031691;29;20033;-71
2023/03/24 10:03:45;;;;;;;3.95;1.75;;;19.40;51.20;;;;;;6031655;29;20165;-74
2023/03/24 10:06:52;;;;;;;2.97;1.58;;;19.40;50.80;;;;;;6030248;29;20174;-72
2023/03/24 10:09:58;;;;;;;9.10;1.95;;;19.60;50.50;;;;;;6031128;29;20072;-74
2023/03/24 10:13:06;;;;;;;7.03;3.00;;;19.80;50.10;;;;;;6030148;29;20061;-73
2023/03/24 10:16:16;;;;;;;8.27;3.25;;;20.00;49.90;;;;;;6030523;29;20396;-73
2023/03/24 10:19:20;;;;;;;17.27;3.45;;;20.20;49.70;;;;;;6030395;29;20041;-73
2023/03/24 10:22:26;;;;;;;12.00;3.15;;;20.30;49.70;;;;;;6032654;29;20056;-72
2023/03/24 10:25:48;;;;;;;9.57;3.22;;;20.30;49.60;;;;;;6031429;29;20037;-73
2023/03/24 10:29:09;;;;;;;10.82;3.45;;;20.50;49.60;;;;;;6030467;29;20041;-74
2023/03/24 10:32:22;;;;;;;11.95;3.03;;;20.50;49.60;;;;;;6031772;29;20034;-74
2023/03/24 10:35:31;;;;;;;4.10;1.40;;;20.60;49.50;;;;;;6031727;29;20033;-73
2023/03/24 10:38:32;;;;;;;2.17;1.20;;;20.60;48.90;;;;;;6030086;29;20065;-71
2023/03/24 10:41:35;;;;;;;8.52;1.50;;;20.60;48.60;;;;;;6029813;29;20661;-73
2023/03/24 10:44:36;;;;;;;4.45;1.58;;;20.60;48.30;;;;;;6030842;29;20098;-71
2023/03/24 10:47:37;;;;;;;4.78;1.33;;;20.50;47.80;;;;;;6028705;29;20108;-72
2023/03/24 10:50:43;;;;;;;9.73;1.98;;;20.50;47.80;;;;;;6029089;29;20038;-73
2023/03/24 10:53:48;;;;;;;9.20;1.90;;;20.40;47.90;;;;;;6029966;29;20247;-75
2023/03/24 10:56:49;;;;;;;5.47;1.50;;;20.30;47.80;;;;;;6029944;29;20041;-73
2023/03/24 10:59:55;;;;;;;3.70;1.45;;;20.30;47.80;;;;;;6030298;29;20045;-73
2023/03/24 11:03:04;;;;;;;10.25;1.77;;;20.40;47.80;;;;;;6033782;29;20447;-74
2023/03/24 11:06:05;;;;;;;10.63;2.65;;;20.40;47.70;;;;;;6040453;29;20163;-72
2023/03/24 11:09:21;;;;;;;5.55;2.28;;;20.40;47.50;;;;;;6031158;29;20089;-73
2023/03/24 11:12:28;;;;;;;4.80;1.92;;;20.40;47.50;;;;;;6028742;29;20197;-72
2023/03/24 11:15:31;;;;;;;5.20;2.10;;;20.40;47.50;;;;;;6029836;29;20045;-72
2023/03/24 11:18:32;;;;;;;8.85;2.22;;;20.40;47.20;;;;;;6021626;29;20634;-72
2023/03/24 11:21:38;;;;;;;6.53;2.17;;;20.50;47.20;;;;;;6006850;29;20038;-72
2023/03/24 11:24:40;;;;;;;6.40;2.03;;;20.50;47.10;;;;;;6006684;29;20041;-73
2023/03/24 11:27:42;;;;;;;7.25;2.40;;;20.40;47.20;;;;;;6006626;29;20053;-73
2023/03/24 11:30:46;;;;;;;7.32;2.60;;;20.40;47.30;;;;;;6004847;29;20046;-73
2023/03/24 11:33:55;;;;;;;8.70;2.53;;;20.40;47.40;;;;;;6004946;29;20494;-74
2023/03/24 11:37:04;;;;;;;6.70;1.95;;;20.40;47.30;;;;;;6004455;29;20118;-73
2023/03/24 11:40:22;;;;;;;10.30;2.40;;;20.40;47.20;;;;;;6005745;29;20037;-74
2023/03/24 11:43:23;;;;;;;4.90;2.20;;;20.40;47.20;;;;;;5990940;29;20478;-73
2023/03/24 11:46:25;;;;;;;7.18;2.03;;;20.40;47.20;;;;;;6005770;29;20457;-72
2023/03/24 11:49:30;;;;;;;7.05;2.30;;;20.50;47.10;;;;;;6006822;29;20038;-73
2023/03/24 11:52:46;;;;;;;8.93;3.20;;;20.60;46.80;;;;;;6006756;29;20030;-73
2023/03/24 11:56:25;;;;;;;8.60;2.83;;;20.60;46.60;;;;;;6028230;29;20033;-72
2023/03/24 11:59:35;;;;;;;10.70;2.92;;;20.50;46.80;;;;;;6028614;29;20129;-74
2023/03/24 12:02:51;;;;;;;7.40;2.78;;;20.50;46.80;;;;;;6028964;29;20028;-73
2023/03/24 12:06:37;;;;;;;17.90;2.08;;;20.40;46.70;;;;;;6029089;29;20040;-73
2023/03/24 12:10:01;;;;;;;7.50;2.25;;;20.30;46.90;;;;;;5957352;29;20154;-72
2023/03/24 12:13:20;;;;;;;8.32;3.13;;;20.20;47.00;;;;;;5958055;29;20047;-72
2023/03/24 12:16:39;;;;;;;10.77;2.78;;;20.20;47.20;;;;;;5942740;29;20330;-74
2023/03/24 12:19:40;;;;;;;8.15;2.17;;;20.10;47.10;;;;;;5927325;29;20038;-73
2023/03/24 12:23:05;;;;;;;7.32;2.38;;;20.10;47.20;;;;;;5957302;29;20122;-72
2023/03/24 12:26:15;;;;;;;23.05;2.13;;;20.00;47.30;;;;;;5957765;29;20050;-71
2023/03/24 12:29:37;;;;;;;6.72;2.90;;;20.00;47.40;;;;;;5957154;29;20035;-73
2023/03/24 12:32:46;;;;;;;12.75;2.33;;;20.10;47.50;;;;;;5958271;29;20051;-72
2023/03/24 12:35:56;;;;;;;6.63;2.20;;;20.10;47.40;;;;;;5958115;29;20531;-71
2023/03/24 12:39:07;;;;;;;6.80;1.98;;;20.10;47.40;;;;;;5943064;29;20396;-71
2023/03/24 12:42:12;;;;;;;9.52;2.70;;;20.00;47.60;;;;;;5958758;29;20095;-73
2023/03/24 12:45:28;;;;;;;6.57;2.55;;;19.90;47.80;;;;;;5979558;29;20372;-73
2023/03/24 12:48:31;;;;;;;9.43;2.10;;;19.80;48.70;;;;;;6027865;29;20469;-71
2023/03/24 12:51:53;;;;;;;4.22;2.92;;;19.60;48.30;;;;;;6028158;29;20359;-71
2023/03/24 12:55:03;;;;;;;6.90;2.40;;;19.60;48.70;;;;;;6012234;29;20080;-73
2023/03/24 12:58:18;;;;;;;4.35;2.15;;;19.40;48.90;;;;;;6027488;29;20049;-73
2023/03/24 13:01:21;;;;;;;6.05;2.03;;;19.40;49.40;;;;;;6029054;29;20076;-72
2023/03/24 13:04:36;;;;;;;7.15;2.20;;;19.30;49.50;;;;;;6028473;29;20029;-73
2023/03/24 13:07:38;;;;;;;5.65;1.88;;;19.40;49.50;;;;;;6011590;29;20067;-72
2023/03/24 13:10:40;;;;;;;4.82;2.10;;;19.40;49.70;;;;;;6030031;29;20045;-72
2023/03/24 13:13:43;;;;;;;7.85;2.25;;;19.50;49.70;;;;;;6031483;29;20390;-75
2023/03/24 13:16:46;;;;;;;3.72;1.92;;;19.50;49.60;;;;;;6016207;29;20041;-73
2023/03/24 13:19:49;;;;;;;6.50;2.38;;;19.60;49.70;;;;;;6023144;29;20046;-73
2023/03/24 13:22:51;;;;;;;10.50;4.20;;;19.70;49.60;;;;;;6009744;29;20041;-72
2023/03/24 13:26:24;;;;;;;9.30;4.00;;;19.90;49.60;;;;;;5993952;29;20360;-72
2023/03/24 13:29:40;;;;;;;6.85;2.75;;;20.00;49.70;;;;;;5993328;29;20064;-73
2023/03/24 13:32:52;;;;;;;6.22;3.05;;;20.20;49.60;;;;;;6010077;29;20045;-72
2023/03/24 13:36:13;;;;;;;10.32;3.67;;;20.40;49.30;;;;;;6010306;29;20121;-73
2023/03/24 13:39:19;;;;;;;10.82;3.65;;;20.50;49.20;;;;;;6008903;29;20155;-73
2023/03/24 13:42:29;;;;;;;9.57;2.97;;;20.60;49.20;;;;;;6009924;29;20040;-72
2023/03/24 13:45:50;;;;;;;7.65;3.25;;;20.70;49.10;;;;;;6008541;29;20064;-72
2023/03/24 13:48:54;;;;;;;10.60;3.13;;;20.80;48.80;;;;;;6011670;29;20388;-72
2023/03/24 13:51:55;;;;;;;12.40;3.72;;;20.80;48.60;;;;;;6019633;29;20037;-72
2023/03/24 13:55:00;;;;;;;11.13;3.00;;;20.80;48.50;;;;;;6034905;29;20041;-72
2023/03/24 13:58:10;;;;;;;7.93;2.85;;;20.80;48.50;;;;;;6032157;29;20138;-74
2023/03/24 14:01:11;;;;;;;9.00;4.03;;;20.90;48.40;;;;;;6015425;29;20041;-71
2023/03/24 14:04:17;;;;;;;6.30;2.90;;;21.00;48.30;;;;;;6032170;29;20037;-72
2023/03/24 14:07:40;;;;;;;11.95;3.25;;;21.00;48.10;;;;;;6032903;29;20030;-73
2023/03/24 14:10:41;;;;;;;11.13;2.75;;;21.00;48.00;;;;;;6030922;29;20486;-73
2023/03/24 14:13:46;;;;;;;7.32;2.92;;;21.10;47.90;;;;;;6029875;29;20169;-73
2023/03/24 14:17:04;;;;;;;11.65;3.10;;;21.20;47.80;;;;;;6029873;29;20356;-74
2023/03/24 14:20:10;;;;;;;5.40;2.50;;;21.30;47.40;;;;;;6011022;29;20056;-73
2023/03/24 14:23:37;;;;;;;8.85;3.00;;;21.30;47.30;;;;;;6007272;29;20503;-72
2023/03/24 14:26:39;;;;;;;12.60;3.15;;;21.20;47.40;;;;;;6005772;29;20049;-72
2023/03/24 14:29:49;;;;;;;5.53;2.70;;;21.10;47.40;;;;;;6007925;29;20539;-73
2023/03/24 14:32:55;;;;;;;5.90;3.08;;;20.90;47.70;;;;;;6008140;29;20176;-74
2023/03/24 14:36:03;;;;;;;11.70;3.38;;;20.80;47.80;;;;;;6007012;29;20057;-72
2023/03/24 14:39:41;;;;;;;17.67;2.92;;;20.70;47.90;;;;;;6006227;29;20041;-73
2023/03/24 14:42:42;;;;;;;4.57;2.70;;;20.60;48.10;;;;;;6005260;29;20046;-75
2023/03/24 14:45:52;;;;;;;16.35;3.83;;;20.50;48.20;;;;;;6008128;29;20122;-73
2023/03/24 14:48:56;;;;;;;8.13;2.30;;;20.60;48.20;;;;;;6012494;29;20141;-73
2023/03/24 14:52:12;;;;;;;6.57;2.17;;;20.70;48.00;;;;;;6030810;29;20025;-72
2023/03/24 14:55:17;;;;;;;6.47;2.90;;;20.90;47.60;;;;;;6030740;29;20123;-73
2023/03/24 14:58:37;;;;;;;7.40;2.83;;;20.90;47.20;;;;;;6028595;29;20037;-73
2023/03/24 15:01:44;;;;;;;5.28;2.72;;;20.90;47.10;;;;;;6030102;29;20073;-72
2023/03/24 15:05:12;;;;;;;7.97;2.47;;;20.80;47.20;;;;;;6029898;29;20113;-75
2023/03/24 15:08:17;;;;;;;4.83;2.67;;;20.70;47.30;;;;;;6029353;29;20060;-74
2023/03/24 15:11:26;;;;;;;5.18;2.78;;;20.70;47.20;;;;;;6029894;29;20289;-73
2023/03/24 15:14:27;;;;;;;5.63;2.60;;;20.70;47.30;;;;;;6029817;29;20452;-72
2023/03/24 15:17:29;;;;;;;55.13;16.60;;;20.70;47.40;;;;;;6029707;29;20042;-72
2023/03/24 15:20:32;;;;;;;8.52;3.30;;;20.60;47.30;;;;;;6012380;29;20033;-72
2023/03/24 15:23:33;;;;;;;6.53;2.75;;;20.60;47.40;;;;;;6029624;29;20483;-71
2023/03/24 15:26:34;;;;;;;10.98;3.25;;;20.50;47.40;;;;;;6029680;29;20097;-71
2023/03/24 15:29:42;;;;;;;6.25;2.90;;;20.60;47.40;;;;;;6029271;29;20037;-71
2023/03/24 15:32:44;;;;;;;7.47;2.72;;;20.60;47.30;;;;;;6029426;29;20116;-71
2023/03/24 15:35:46;;;;;;;12.07;3.40;;;20.60;47.30;;;;;;6028697;29;20029;-69
2023/03/24 15:38:50;;;;;;;5.20;2.70;;;20.50;47.30;;;;;;6027816;29;20509;-72
2023/03/24 15:41:52;;;;;;;7.55;2.35;;;20.40;47.40;;;;;;6028424;29;20037;-71
2023/03/24 15:44:54;;;;;;;12.07;2.90;;;20.30;47.60;;;;;;6030241;29;20053;-71
2023/03/24 15:47:56;;;;;;;13.82;3.00;;;20.20;47.70;;;;;;6030867;29;20093;-70
2023/03/24 15:51:10;;;;;;;5.45;2.38;;;20.20;47.90;;;;;;6029008;29;20033;-71
2023/03/24 15:54:29;;;;;;;7.18;2.60;;;20.20;48.10;;;;;;6028942;29;20037;-73
2023/03/24 15:57:39;;;;;;;7.85;2.30;;;20.10;48.30;;;;;;6029283;29;20038;-71
2023/03/24 16:00:41;;;;;;;5.38;2.22;;;20.10;48.40;;;;;;6027236;29;20049;-71
2023/03/24 16:03:43;;;;;;;6.13;2.10;;;20.00;48.50;;;;;;6027661;29;20025;-70
2023/03/24 16:06:49;;;;;;;10.13;2.22;;;20.00;48.60;;;;;;6027774;29;20213;-71
2023/03/24 16:10:03;;;;;;;6.03;1.88;;;19.90;48.70;;;;;;6027507;29;20038;-70
2023/03/24 16:13:20;;;;;;;4.82;1.95;;;19.90;49.00;;;;;;6029779;29;20454;-70
2023/03/24 16:16:27;;;;;;;8.93;2.15;;;19.80;49.20;;;;;;6028877;29;20053;-70
2023/03/24 16:19:28;;;;;;;7.95;2.03;;;19.80;49.30;;;;;;6028031;29;20108;-71
2023/03/24 16:22:29;;;;;;;3.13;1.77;;;19.70;49.30;;;;;;6028816;29;20033;-71
2023/03/24 16:25:31;;;;;;;4.20;1.58;;;19.70;49.30;;;;;;6029181;29;20495;-71
2023/03/24 16:28:33;;;;;;;3.55;1.60;;;19.70;49.20;;;;;;6026872;29;20049;-69
2023/03/24 16:31:34;;;;;;;7.63;1.73;;;19.70;49.00;;;;;;6027816;29;20531;-71
2023/03/24 16:34:36;;;;;;;6.82;1.95;;;19.70;48.90;;;;;;6029528;29;20048;-70
2023/03/24 16:37:37;;;;;;;3.88;1.42;;;19.80;48.70;;;;;;6031556;29;20058;-71
2023/03/24 16:40:53;;;;;;;4.47;1.80;;;19.80;48.40;;;;;;6035121;29;20360;-71
2023/03/24 16:43:54;;;;;;;5.10;1.30;;;19.80;48.10;;;;;;6032163;29;20112;-70
2023/03/24 16:46:55;;;;;;;5.38;1.70;;;19.90;47.90;;;;;;6032753;29;20116;-71
2023/03/24 16:49:56;;;;;;;4.70;1.80;;;19.90;47.90;;;;;;6032512;29;20029;-73
2023/03/24 16:52:57;;;;;;;4.35;1.42;;;19.90;48.00;;;;;;6033545;29;20039;-72
2023/03/24 16:55:58;;;;;;;9.35;1.85;;;19.90;48.00;;;;;;6033479;29;20112;-72
2023/03/24 16:58:59;;;;;;;7.13;1.90;;;19.90;47.90;;;;;;6032775;29;20364;-71
2023/03/24 17:02:04;;;;;;;7.82;1.70;;;19.90;47.90;;;;;;6031884;29;20085;-72
2023/03/24 17:05:19;;;;;;;8.98;1.88;;;19.90;48.10;;;;;;6032910;29;20033;-71
2023/03/24 17:08:20;;;;;;;3.13;1.40;;;19.90;48.50;;;;;;6032050;29;20050;-70
2023/03/24 17:11:31;;;;;;;6.43;1.90;;;19.80;48.60;;;;;;6032439;29;20090;-71
2023/03/24 17:14:32;;;;;;;4.50;2.17;;;19.70;48.80;;;;;;6033369;29;20107;-72
2023/03/24 17:17:33;;;;;;;5.05;1.60;;;19.70;49.00;;;;;;6032479;29;20557;-71
2023/03/24 17:20:34;;;;;;;5.93;2.00;;;19.70;49.30;;;;;;6033674;29;20410;-70
2023/03/24 17:23:35;;;;;;;5.40;1.35;;;19.60;49.60;;;;;;6030942;29;20045;-72